Raisin City, California
Current Conditions -  °F | °C
As of 3:53 PM on Saturday 25 Oct 2014 (Local Time) from KFAT Reporting Station
Broken Clouds Broken Clouds  
Wind Chill: 76°   Ceiling: 10000
Heat Index: 76°   Visibility: 9mi
Dew Point: 52°   Wind: 22mph
Humidity: 43%   Direction: 310°NW
Pressure: 30.04"   Gusts: NA
Location:  36.6025°N, 119.898°W
Report Text: KFAT 252253Z 31019KT 9SM SCT060 BKN100 24/11 A3004 RMK AO2 SLP171 HZ DSNT ALQDS MTNS OBSC N-E-SE T02440111
Loading
Personal Weather Stations






























Interactive Weather Map
Tropical Storm Tracking
New forecast layout! Learn more

10-Day Weather Forecast

Advertisements
Track Severe Weather on mobile